Time;durP1;ratioP1;P1;durP2;ratioP2;P2;SDS_P1;SDS_P2;PMS_P1;PMS_P2;Temp;Humidity;BMP_temperature;BMP_pressure;BME280_temperature;BME280_humidity;BME280_pressure;Samples;Min_cycle;Max_cycle;Signal;HPM_P1;HPM_P2
2022/01/12 05:18:17;;;;;;;31.05;12.80;;;;;;;-6.27;86.27;102078.72;5563076;32;245536;-84
2022/01/12 05:21:22;;;;;;;34.67;13.38;;;;;;;-6.34;86.41;102081.84;5552648;32;34570;-84
2022/01/12 05:24:25;;;;;;;29.58;12.95;;;;;;;-6.33;86.20;102081.91;5549171;32;34068;-84
2022/01/12 05:27:28;;;;;;;29.15;13.50;;;;;;;-6.32;86.04;102086.25;5548298;32;33888;-84
2022/01/12 05:30:32;;;;;;;27.83;13.40;;;;;;;-6.33;86.25;102081.91;5548329;32;34872;-83
2022/01/12 05:33:36;;;;;;;32.53;14.25;;;;;;;-6.41;86.42;102084.13;5548193;32;33915;-84
2022/01/12 05:36:40;;;;;;;30.90;13.32;;;;;;;-6.46;86.88;102085.59;5575098;26;34258;-89
2022/01/12 05:39:43;;;;;;;28.67;13.30;;;;;;;-6.45;86.87;102091.66;5564416;32;34189;-89
2022/01/12 05:43:02;;;;;;;33.35;14.48;;;;;;;-6.51;87.16;102084.50;5564151;32;33693;-89
2022/01/12 05:46:11;;;;;;;30.58;14.07;;;;;;;-6.54;87.62;102084.34;5564368;32;33827;-89
2022/01/12 05:52:36;;;;;;;;;;;;;;;-6.54;88.22;102092.97;5564249;32;33784;-89
2022/01/12 05:55:38;;;;;;;31.87;13.15;;;;;;;-6.65;88.52;102105.38;5564559;32;34801;-89
2022/01/12 05:58:41;;;;;;;33.35;14.27;;;;;;;-6.56;88.49;102107.50;5562474;32;35160;-89
2022/01/12 06:01:44;;;;;;;31.40;13.70;;;;;;;-6.61;88.69;102100.38;5611336;26;34321;-88
2022/01/12 06:04:47;;;;;;;30.10;13.85;;;;;;;-6.67;89.25;102107.00;5564795;32;35303;-89
2022/01/12 06:07:51;;;;;;;28.55;13.82;;;;;;;-6.63;89.14;102114.06;5576924;26;33820;-88
2022/01/12 06:10:54;;;;;;;35.88;14.63;;;;;;;-6.67;89.17;102114.75;5564554;32;33848;-89
2022/01/12 06:13:57;;;;;;;38.20;14.95;;;;;;;-6.71;89.26;102123.12;5564900;32;34027;-88
2022/01/12 06:17:02;;;;;;;30.65;14.02;;;;;;;-6.71;89.11;102129.97;5561760;32;33848;-87
2022/01/12 06:20:07;;;;;;;30.25;14.65;;;;;;;-6.76;89.34;102142.66;5559159;32;35372;-88
2022/01/12 06:23:10;;;;;;;35.30;14.55;;;;;;;-6.74;89.48;102143.62;5551250;31;33822;-88
2022/01/12 06:26:13;;;;;;;41.30;14.68;;;;;;;-6.78;89.73;102145.16;5556384;32;33967;-88
2022/01/12 06:32:22;;;;;;;31.60;13.88;;;;;;;-6.84;90.63;102146.56;5551023;32;33842;-88
2022/01/12 06:35:25;;;;;;;35.30;15.43;;;;;;;-6.81;90.90;102150.19;5547842;32;33966;-88
2022/01/12 06:38:28;;;;;;;32.92;16.37;;;;;;;-6.74;90.71;102147.91;5551187;32;33753;-89
2022/01/12 06:41:31;;;;;;;33.63;15.65;;;;;;;-6.80;90.66;102145.88;5546207;32;34198;-88
2022/01/12 06:44:34;;;;;;;37.20;14.87;;;;;;;-6.86;90.81;102148.16;5548701;32;34820;-88
2022/01/12 06:47:38;;;;;;;31.98;15.63;;;;;;;-6.75;90.50;102148.72;5544401;32;34528;-88
2022/01/12 06:50:40;;;;;;;36.17;15.57;;;;;;;-6.77;91.15;102154.69;5533720;32;33965;-89
2022/01/12 06:53:43;;;;;;;38.38;15.07;;;;;;;-6.68;91.13;102159.41;5534815;32;34649;-88
2022/01/12 06:56:49;;;;;;;33.60;15.02;;;;;;;-6.65;91.51;102163.84;5535073;32;34197;-89
2022/01/12 06:59:52;;;;;;;29.80;14.68;;;;;;;-6.60;91.13;102162.37;5534687;32;34054;-92
2022/01/12 07:06:18;;;;;;;35.33;15.85;;;;;;;-6.52;90.09;102166.25;5513151;32;34516;-90
2022/01/12 07:09:21;;;;;;;34.88;15.50;;;;;;;-6.37;89.23;102162.63;5574717;26;34966;-89
2022/01/12 07:12:25;;;;;;;38.17;16.87;;;;;;;-6.40;89.37;102167.62;5532793;32;33903;-89
2022/01/12 07:15:29;;;;;;;46.75;18.37;;;;;;;-6.41;89.36;102173.63;5540439;32;33527;-88
2022/01/12 07:18:32;;;;;;;44.50;18.00;;;;;;;-6.41;89.48;102176.19;5546305;32;34690;-88
2022/01/12 07:21:35;;;;;;;37.42;16.75;;;;;;;-6.27;88.75;102179.47;5543405;32;34130;-88
2022/01/12 07:24:38;;;;;;;36.85;17.27;;;;;;;-6.29;88.53;102183.69;5520466;32;34514;-87
2022/01/12 07:27:41;;;;;;;45.05;16.60;;;;;;;-6.28;88.55;102183.72;5517894;32;34327;-88
2022/01/12 07:30:44;;;;;;;35.22;16.33;;;;;;;-6.10;88.53;102191.50;5512286;32;33911;-86
2022/01/12 07:33:47;;;;;;;34.22;17.00;;;;;;;-6.06;87.21;102196.81;5514479;32;35001;-88
2022/01/12 07:44:02;;;;;;;38.67;15.73;;;;;;;-5.88;86.02;102208.00;2363691;26;20108;-86
2022/01/12 07:47:21;;;;;;;36.55;16.60;;;;;;;-5.76;85.08;102217.16;5512994;32;33515;-87
2022/01/12 07:50:24;;;;;;;30.40;14.45;;;;;;;-5.77;85.01;102210.22;5512878;32;33886;-85
2022/01/12 07:53:27;;;;;;;40.42;16.85;;;;;;;-5.72;85.10;102211.31;5511862;32;35386;-86
2022/01/12 07:56:31;;;;;;;29.85;14.95;;;;;;;-5.63;84.09;102222.09;5509942;32;34701;-85
2022/01/12 07:59:33;;;;;;;40.50;16.45;;;;;;;-5.52;83.79;102221.72;5511601;32;34994;-89
2022/01/12 08:02:36;;;;;;;36.90;16.45;;;;;;;-5.53;83.62;102220.84;5502366;32;34460;-87
2022/01/12 08:05:39;;;;;;;33.78;16.25;;;;;;;-5.58;83.68;102218.00;5512839;32;33605;-88
2022/01/12 08:08:42;;;;;;;39.05;17.92;;;;;;;-5.42;83.40;102224.78;5519882;32;33690;-86
2022/01/12 08:11:45;;;;;;;32.80;16.10;;;;;;;-5.40;83.07;102227.44;5518771;32;34344;-87
2022/01/12 08:14:47;;;;;;;40.55;17.65;;;;;;;-5.34;82.93;102227.72;5500299;32;34185;-87
2022/01/12 08:17:50;;;;;;;40.80;18.25;;;;;;;-5.19;82.21;102218.91;5493930;32;34532;-88
2022/01/12 08:20:53;;;;;;;35.75;17.80;;;;;;;-5.07;80.99;102224.62;5510951;32;34479;-89
2022/01/12 08:23:55;;;;;;;35.72;15.82;;;;;;;-5.03;80.64;102223.06;5514288;32;34490;-87
2022/01/12 08:27:07;;;;;;;32.85;15.18;;;;;;;-4.99;82.35;102229.25;5500200;32;32949;-88
2022/01/12 08:41:42;;;;;;;31.45;14.13;;;;;;;-4.62;78.37;102262.81;1096003;26;20385;31
2022/01/12 08:45:06;;;;;;;36.20;14.57;;;;;;;-4.57;78.34;102259.56;5491199;32;32038;-89
2022/01/12 08:55:19;;;;;;;26.55;13.15;;;;;;;-4.28;76.58;102252.16;4945247;30;20163;-88
2022/01/12 08:58:22;;;;;;;33.67;14.30;;;;;;;-4.29;75.76;102251.25;5558790;32;33642;-89
2022/01/12 09:01:24;;;;;;;30.17;13.75;;;;;;;-4.06;76.79;102252.19;5553825;32;34055;-88
2022/01/12 09:04:27;;;;;;;30.67;14.07;;;;;;;-3.90;75.73;102250.22;5544126;32;33649;-88
2022/01/12 09:07:30;;;;;;;28.58;14.05;;;;;;;-4.02;75.39;102245.41;5553755;32;33906;-88
2022/01/12 09:10:34;;;;;;;29.08;13.18;;;;;;;-4.10;75.36;102244.22;5558556;32;34863;-89
2022/01/12 09:13:37;;;;;;;27.83;13.95;;;;;;;-3.87;75.30;102244.28;5536272;32;33800;-87
2022/01/12 09:16:40;;;;;;;34.90;15.15;;;;;;;-3.71;74.45;102248.38;5546903;32;33856;-89
2022/01/12 09:19:43;;;;;;;31.77;15.48;;;;;;;-3.73;74.01;102243.13;5540626;32;33550;-87
2022/01/12 09:22:48;;;;;;;34.92;17.10;;;;;;;-3.61;74.36;102242.75;5535195;32;34313;-87
2022/01/12 09:25:51;;;;;;;40.90;18.40;;;;;;;-3.50;75.00;102244.84;5545194;32;33818;-87
2022/01/12 09:28:53;;;;;;;39.20;18.12;;;;;;;-3.49;75.17;102247.50;5538850;32;32870;-88
2022/01/12 09:31:56;;;;;;;35.55;16.95;;;;;;;-3.36;75.02;102248.88;5547136;32;34096;-87
2022/01/12 09:34:59;;;;;;;40.10;17.25;;;;;;;-1.21;68.01;102232.56;5548370;32;33978;-87
2022/01/12 09:38:02;;;;;;;38.22;16.85;;;;;;;1.33;57.56;102230.72;5545666;32;33454;-87
2022/01/12 09:41:05;;;;;;;34.45;17.27;;;;;;;3.30;50.47;102235.31;5546563;32;33415;-87
2022/01/12 09:44:07;;;;;;;33.50;16.02;;;;;;;3.02;50.53;102235.00;5546780;32;33861;-87
2022/01/12 09:47:11;;;;;;;41.65;17.35;;;;;;;5.21;44.10;102237.41;5538288;32;33907;-91
2022/01/12 09:50:17;;;;;;;34.05;17.95;;;;;;;5.34;42.74;102235.72;5528105;32;34266;-91
2022/01/12 09:53:20;;;;;;;32.53;15.88;;;;;;;6.99;38.43;102230.25;5535884;32;33831;-91
2022/01/12 09:56:26;;;;;;;29.87;15.13;;;;;;;7.66;37.25;102224.56;5539351;32;33892;-87
2022/01/12 09:59:29;;;;;;;34.35;18.17;;;;;;;8.25;36.02;102223.16;5537450;32;34669;-85
2022/01/12 10:02:32;;;;;;;36.33;18.60;;;;;;;10.06;31.44;102229.50;5541069;32;33588;-86
2022/01/12 10:05:35;;;;;;;30.00;17.70;;;;;;;8.58;33.67;102237.81;5541429;32;34198;-86
2022/01/12 10:08:37;;;;;;;28.67;15.95;;;;;;;9.53;32.94;102230.37;5536048;32;33981;-86
2022/01/12 10:11:56;;;;;;;30.77;16.10;;;;;;;7.87;34.18;102225.25;5559763;32;34696;-85
2022/01/12 10:15:02;;;;;;;30.75;15.63;;;;;;;5.73;37.86;102220.81;5543040;32;34285;-86
2022/01/12 10:18:05;;;;;;;29.00;16.45;;;;;;;4.66;42.05;102238.97;5551113;32;34613;-88
2022/01/12 10:21:08;;;;;;;29.27;14.95;;;;;;;4.80;42.13;102233.78;5544319;32;33521;-89
2022/01/12 10:43:41;;;;;;;24.70;12.98;;;;;;;2.75;42.48;102232.91;4944481;29;20107;-89
2022/01/12 10:46:44;;;;;;;25.73;13.05;;;;;;;1.74;44.93;102225.34;5564833;26;33728;-91
2022/01/12 10:53:48;;;;;;;26.33;12.93;;;;;;;2.27;46.80;102220.91;1354579;26;20092;-90
2022/01/12 11:01:13;;;;;;;27.85;13.32;;;;;;;1.58;45.77;102229.44;892021;26;20391;-89
2022/01/12 11:04:17;;;;;;;;;;;;;;;1.54;46.87;102222.38;5541438;26;32321;-88
2022/01/12 11:07:20;;;;;;;27.27;13.23;;;;;;;1.45;46.97;102215.25;5531038;32;34819;-88
2022/01/12 11:10:25;;;;;;;25.60;12.02;;;;;;;2.16;44.63;102214.62;5538841;32;34602;-89
2022/01/12 11:17:05;;;;;;;29.55;13.57;;;;;;;1.33;46.63;102215.91;5543421;26;20426;-88
2022/01/12 11:20:19;;;;;;;26.40;13.40;;;;;;;0.89;47.35;102227.28;5549570;32;33549;-89
2022/01/12 11:23:35;;;;;;;25.50;12.55;;;;;;;1.27;47.67;102213.19;5600040;26;34232;-89
2022/01/12 11:26:48;;;;;;;24.25;12.65;;;;;;;1.79;45.38;102220.19;5547956;32;33938;-87
2022/01/12 11:33:29;;;;;;;25.98;12.48;;;;;;;3.43;40.70;102207.47;4774164;29;20135;-90
2022/01/12 11:44:18;;;;;;;28.10;13.57;;;;;;;2.52;44.52;102205.53;5521999;29;20076;-89
2022/01/12 11:51:06;;;;;;;26.42;12.60;;;;;;;4.13;39.42;102194.00;2022024;26;20440;-89
2022/01/12 11:54:12;;;;;;;29.35;13.20;;;;;;;2.72;42.43;102196.19;5548866;32;34025;-89
2022/01/12 11:57:19;;;;;;;25.55;12.50;;;;;;;2.14;44.07;102185.84;5548674;32;33951;-89
2022/01/12 12:00:27;;;;;;;29.17;13.23;;;;;;;1.09;46.44;102198.03;5554304;32;34300;-90
2022/01/12 12:03:29;;;;;;;30.55;13.95;;;;;;;1.27;47.24;102189.66;5545428;32;34078;-89
2022/01/12 12:10:12;;;;;;;26.23;13.05;;;;;;;0.68;48.70;102185.91;5626324;26;33849;-89
2022/01/12 12:13:20;;;;;;;21.77;11.77;;;;;;;0.77;47.98;102180.88;5578325;26;32090;-89
2022/01/12 12:16:22;;;;;;;22.92;12.18;;;;;;;0.14;48.82;102183.00;5560820;32;34463;-88
2022/01/12 12:19:26;;;;;;;26.08;11.77;;;;;;;0.01;48.63;102186.19;5545038;32;33675;-89
2022/01/12 12:22:34;;;;;;;24.92;11.82;;;;;;;0.59;48.19;102183.09;5549008;32;33958;-89
2022/01/12 12:25:40;;;;;;;25.40;12.30;;;;;;;0.56;47.82;102186.53;5544427;32;34254;-89
2022/01/12 12:28:52;;;;;;;27.80;12.73;;;;;;;0.78;47.74;102193.09;5540964;32;33710;-89
2022/01/12 12:31:56;;;;;;;;;;;;;;;0.82;47.86;102190.53;5539329;32;34255;-88
2022/01/12 12:35:01;;;;;;;29.15;13.55;;;;;;;0.59;49.19;102198.75;5540415;32;34811;-89
2022/01/12 12:38:08;;;;;;;32.05;14.93;;;;;;;-0.09;49.70;102198.12;5540895;32;34505;-88
2022/01/12 12:41:11;;;;;;;29.08;13.10;;;;;;;0.18;49.87;102200.50;5546614;32;34949;-87
2022/01/12 12:44:24;;;;;;;27.92;13.35;;;;;;;0.35;50.85;102202.63;5565779;32;34382;-88
2022/01/12 12:47:27;;;;;;;31.98;15.05;;;;;;;0.56;50.28;102196.09;5569622;32;34388;-88
2022/01/12 12:50:32;;;;;;;33.78;15.73;;;;;;;0.35;50.94;102189.56;5573606;32;34013;-87
2022/01/12 12:53:40;;;;;;;31.30;14.98;;;;;;;0.18;51.58;102181.34;5573015;32;34229;-88
2022/01/12 12:56:49;;;;;;;30.23;15.05;;;;;;;0.02;53.10;102181.00;5549018;32;34484;-89
2022/01/12 13:00:08;;;;;;;39.35;16.17;;;;;;;-0.01;53.95;102188.75;5548501;32;34264;-89
2022/01/12 13:03:11;;;;;;;36.40;16.67;;;;;;;0.28;52.74;102188.53;5539079;32;33850;-89
2022/01/12 13:06:26;;;;;;;36.88;17.40;;;;;;;0.13;53.63;102183.84;5543491;32;33844;-89
2022/01/12 13:09:29;;;;;;;41.72;18.92;;;;;;;0.39;53.42;102178.31;5547075;32;34458;-89
2022/01/12 13:12:39;;;;;;;36.63;17.15;;;;;;;-0.11;55.08;102181.56;5546934;32;33592;-89
2022/01/12 13:15:43;;;;;;;35.30;17.00;;;;;;;-0.23;55.49;102187.34;5541641;32;33573;-89
2022/01/12 13:18:49;;;;;;;37.95;16.87;;;;;;;-0.12;55.11;102178.06;5548867;32;34307;-89
2022/01/12 13:21:52;;;;;;;32.40;16.45;;;;;;;-0.12;55.14;102174.56;5538406;32;34050;-88
2022/01/12 13:24:56;;;;;;;37.15;17.70;;;;;;;-0.27;54.52;102178.56;5555348;32;34201;-88
2022/01/12 13:28:01;;;;;;;39.67;17.40;;;;;;;-0.39;55.18;102191.31;5552859;32;33717;-89
2022/01/12 13:31:08;;;;;;;33.47;16.12;;;;;;;-0.47;55.44;102184.19;5548660;32;34419;-88
2022/01/12 13:34:14;;;;;;;36.20;17.25;;;;;;;-0.59;56.23;102187.38;5549459;32;34263;-88
2022/01/12 13:37:18;;;;;;;38.40;16.95;;;;;;;-0.65;56.63;102191.53;5548601;32;33946;-88
2022/01/12 13:40:21;;;;;;;39.65;16.85;;;;;;;-0.64;56.55;102195.91;5550903;32;34298;-92
2022/01/12 13:43:24;;;;;;;34.58;17.02;;;;;;;-0.66;56.61;102187.16;5552828;32;33802;-92
2022/01/12 13:46:37;;;;;;;37.53;16.75;;;;;;;-0.64;56.85;102191.59;5538362;32;35238;-92
2022/01/12 13:49:40;;;;;;;38.83;16.52;;;;;;;-0.66;57.32;102185.44;5546045;32;33653;-89
2022/01/12 13:52:54;;;;;;;33.30;15.23;;;;;;;-0.83;58.23;102185.87;5551537;32;33776;-89
2022/01/12 13:55:56;;;;;;;35.00;15.23;;;;;;;-0.91;58.67;102192.59;5563926;32;35304;-89
2022/01/12 13:59:01;;;;;;;32.90;15.07;;;;;;;-0.90;58.49;102188.28;5575564;26;34269;-88
2022/01/12 14:02:12;;;;;;;32.28;14.70;;;;;;;-0.97;57.86;102189.81;5534227;32;34275;-88
2022/01/12 14:05:20;;;;;;;26.65;14.48;;;;;;;-0.92;58.15;102187.34;5532107;32;33934;-88
2022/01/12 14:08:22;;;;;;;27.45;14.25;;;;;;;-1.08;58.17;102192.13;5530543;32;33799;-88
2022/01/12 14:11:34;;;;;;;31.20;15.35;;;;;;;-1.23;59.13;102203.91;5532247;32;34037;-88
2022/01/12 14:14:44;;;;;;;30.37;15.13;;;;;;;-1.33;59.76;102216.56;5531881;32;33702;-89
2022/01/12 14:17:48;;;;;;;;;;;;;;;-1.39;60.31;102219.91;5512614;32;34806;-89
2022/01/12 14:20:51;;;;;;;35.08;15.68;;;;;;;-1.54;60.80;102212.50;5522475;32;34579;-89
2022/01/12 14:23:56;;;;;;;31.90;14.98;;;;;;;-1.56;61.20;102219.41;5530244;32;33954;-89
2022/01/12 14:26:59;;;;;;;29.37;15.05;;;;;;;-1.57;61.16;102210.69;5530399;32;35284;-89
2022/01/12 14:30:03;;;;;;;27.55;13.32;;;;;;;-1.64;61.40;102207.03;5530484;32;34490;-89
2022/01/12 14:33:06;;;;;;;29.35;14.23;;;;;;;-1.72;61.65;102211.09;5530735;32;34075;-89
2022/01/12 14:36:09;;;;;;;26.98;14.38;;;;;;;-1.81;62.19;102201.28;5530835;32;34567;-88
2022/01/12 14:39:12;;;;;;;27.83;14.00;;;;;;;-1.93;62.40;102207.00;5534763;32;33591;-89
2022/01/12 14:42:15;;;;;;;26.62;12.82;;;;;;;-1.84;62.48;102200.31;5533066;32;34174;-89
2022/01/12 14:45:24;;;;;;;27.37;13.52;;;;;;;-1.96;63.17;102200.84;5530604;32;34070;-89
2022/01/12 14:48:27;;;;;;;29.73;13.25;;;;;;;-2.14;63.79;102212.41;5531187;32;34412;-88
2022/01/12 14:51:29;;;;;;;28.02;13.40;;;;;;;-2.20;64.27;102218.28;5531834;32;35113;-88
2022/01/12 14:54:32;;;;;;;27.52;13.30;;;;;;;-2.17;64.67;102213.19;5532109;32;33986;-89
2022/01/12 14:57:35;;;;;;;27.60;12.95;;;;;;;-2.13;64.40;102201.16;5531060;32;33646;-89
2022/01/12 15:00:38;;;;;;;29.60;13.45;;;;;;;-2.01;64.90;102198.06;5537423;32;33820;-90
2022/01/12 15:03:40;;;;;;;27.25;13.20;;;;;;;-2.32;65.88;102203.16;5533690;32;35004;-89
2022/01/12 15:06:43;;;;;;;32.95;12.80;;;;;;;-2.42;66.13;102195.03;5529668;32;33498;-88
2022/01/12 15:09:47;;;;;;;28.05;13.13;;;;;;;-2.51;66.85;102204.25;5529805;32;34102;-89
2022/01/12 15:12:52;;;;;;;31.87;13.48;;;;;;;-2.34;66.62;102204.84;5511923;32;34295;-89
2022/01/12 15:15:57;;;;;;;27.55;13.02;;;;;;;-2.54;67.60;102214.56;5522614;32;33805;-89
2022/01/12 15:19:00;;;;;;;28.17;12.90;;;;;;;-2.53;68.32;102212.84;5532906;32;34629;-92
2022/01/12 15:22:03;;;;;;;29.35;13.60;;;;;;;-2.47;68.09;102202.66;5539295;32;35006;-92
2022/01/12 15:25:08;;;;;;;26.52;12.40;;;;;;;-2.59;68.86;102209.22;5539809;32;34998;-91
2022/01/12 15:28:11;;;;;;;26.87;13.52;;;;;;;-2.54;69.09;102211.06;5535083;32;34290;-88
2022/01/12 15:31:14;;;;;;;29.15;13.23;;;;;;;-2.64;69.57;102225.47;5530109;32;34189;-87
2022/01/12 15:34:17;;;;;;;29.40;13.77;;;;;;;-2.65;69.80;102236.69;5529614;32;34320;-88
2022/01/12 15:37:21;;;;;;;28.95;13.57;;;;;;;-2.78;70.24;102238.84;5530250;32;33720;-88
2022/01/12 15:40:24;;;;;;;35.17;14.70;;;;;;;-2.85;70.69;102240.31;5533871;32;35077;-88
2022/01/12 15:43:27;;;;;;;35.60;15.82;;;;;;;-2.88;71.14;102239.34;5528722;32;34534;-88
2022/01/12 15:46:29;;;;;;;29.40;14.30;;;;;;;-2.87;70.98;102246.31;5529034;32;33960;-88
2022/01/12 15:49:33;;;;;;;33.88;14.63;;;;;;;-2.86;71.06;102253.28;5527365;32;35187;-88
2022/01/12 15:52:37;;;;;;;37.03;16.42;;;;;;;-2.81;70.61;102248.25;5529257;32;33669;-87
2022/01/12 15:55:40;;;;;;;34.05;15.98;;;;;;;-2.93;70.97;102246.09;5529534;32;33912;-88
2022/01/12 15:58:42;;;;;;;39.00;16.52;;;;;;;-2.95;71.13;102253.84;5529241;32;34310;-88
2022/01/12 16:01:45;;;;;;;40.22;17.80;;;;;;;-3.00;71.54;102264.06;5530979;32;33647;-87
2022/01/12 16:04:49;;;;;;;44.05;17.02;;;;;;;-2.94;71.71;102267.69;5532122;32;35124;-87
2022/01/12 16:07:52;;;;;;;44.53;18.45;;;;;;;-2.81;71.23;102266.44;5529795;32;34329;-88
2022/01/12 16:10:57;;;;;;;48.95;19.48;;;;;;;-2.85;71.54;102263.72;5529569;32;34912;-87
2022/01/12 16:13:59;;;;;;;47.88;20.65;;;;;;;-2.85;71.95;102273.22;5529486;32;35512;-87
2022/01/12 16:17:07;;;;;;;50.47;21.35;;;;;;;-2.83;72.01;102268.97;5530087;32;33907;-87
2022/01/12 16:20:10;;;;;;;45.42;20.17;;;;;;;-2.82;72.26;102260.34;5530395;32;33673;-87
2022/01/12 16:23:13;;;;;;;54.33;23.80;;;;;;;-2.82;72.48;102256.87;5533020;32;34466;-87
2022/01/12 16:26:16;;;;;;;58.33;22.62;;;;;;;-2.92;73.25;102263.44;5531451;32;33799;-88
2022/01/12 16:29:19;;;;;;;64.62;23.50;;;;;;;-2.92;73.61;102259.12;5529182;32;33767;-87
2022/01/12 16:32:23;;;;;;;60.72;23.67;;;;;;;-2.85;73.75;102252.44;5528937;32;34694;-87
